createdAt,value
2023-04-08T00:04:14.873Z,13.75
2023-04-08T00:14:17.660Z,14.52
2023-04-08T00:24:21.607Z,14.45
2023-04-08T00:34:25.880Z,14.38
2023-04-08T00:44:45.015Z,14.20
2023-04-08T00:55:08.735Z,16.25
2023-04-08T01:05:41.939Z,17.23
2023-04-08T01:27:07.223Z,15.40
2023-04-08T01:37:18.208Z,15.85
2023-04-08T01:48:22.500Z,15.48
2023-04-08T01:58:28.203Z,16.85
2023-04-08T02:08:30.070Z,15.38
2023-04-08T02:18:35.866Z,14.80
2023-04-08T02:28:41.598Z,13.43
2023-04-08T02:38:49.334Z,14.82
2023-04-08T02:48:54.289Z,14.65
2023-04-08T02:59:00.136Z,13.65
2023-04-08T03:09:02.065Z,13.63
2023-04-08T03:19:23.194Z,13.90
2023-04-08T03:29:25.118Z,12.85
2023-04-08T03:39:59.424Z,13.20
2023-04-08T03:50:01.349Z,13.57
2023-04-08T04:00:03.814Z,13.18
2023-04-08T04:10:06.257Z,14.15
2023-04-08T04:20:08.800Z,13.63
2023-04-08T04:30:10.994Z,13.40
2023-04-08T04:40:13.225Z,13.77
2023-04-08T04:50:54.494Z,16.85
2023-04-08T05:01:00.717Z,18.02
2023-04-08T05:11:02.638Z,13.13
2023-04-08T05:21:04.710Z,12.77
2023-04-08T05:31:06.806Z,13.43
2023-04-08T05:41:08.852Z,13.85
2023-04-08T05:51:15.306Z,15.07
2023-04-08T06:01:17.324Z,12.02
2023-04-08T06:11:19.252Z,12.23
2023-04-08T06:21:21.788Z,11.15
2023-04-08T06:31:23.716Z,11.13
2023-04-08T06:41:25.718Z,10.57
2023-04-08T06:51:34.709Z,10.73
2023-04-08T07:01:36.800Z,10.82
2023-04-08T07:11:38.733Z,10.20
2023-04-08T07:21:41.886Z,9.73
2023-04-08T07:31:44.635Z,10.68
2023-04-08T07:41:47.653Z,9.80
2023-04-08T07:51:56.127Z,10.15
2023-04-08T08:02:04.474Z,9.70
2023-04-08T08:12:14.597Z,9.70
2023-04-08T08:22:16.811Z,9.13
2023-04-08T08:32:19.299Z,11.00
2023-04-08T08:42:23.678Z,9.18
2023-04-08T08:52:51.887Z,9.02
2023-04-08T09:03:14.216Z,8.13
2023-04-08T09:13:17.641Z,8.02
2023-04-08T09:23:19.730Z,8.23
2023-04-08T09:33:35.451Z,8.30
2023-04-08T09:44:02.486Z,9.52
2023-04-08T09:54:14.286Z,8.27
2023-04-08T10:04:19.640Z,8.48
2023-04-08T10:14:22.708Z,8.32
2023-04-08T10:24:34.647Z,6.72
2023-04-08T10:34:52.884Z,9.45
2023-04-08T10:44:54.978Z,5.97
2023-04-08T10:54:57.100Z,9.93
2023-04-08T11:05:00.383Z,4.05
2023-04-08T11:15:06.585Z,6.93
2023-04-08T11:25:15.351Z,6.35
2023-04-08T11:35:17.466Z,8.02
2023-04-08T11:45:22.518Z,8.02
2023-04-08T11:55:49.237Z,7.00
2023-04-08T12:05:51.305Z,4.00
2023-04-08T12:16:00.257Z,6.88
2023-04-08T12:26:02.586Z,7.30
2023-04-08T12:36:04.793Z,5.13
2023-04-08T12:46:06.972Z,3.67
2023-04-08T12:56:09.013Z,5.78
2023-04-08T13:06:34.689Z,4.55
2023-04-08T13:16:37.330Z,4.03
2023-04-08T13:26:39.267Z,2.05
2023-04-08T13:36:41.180Z,5.10
2023-04-08T13:46:43.194Z,2.88
2023-04-08T13:56:47.284Z,5.22
2023-04-08T14:07:02.821Z,4.95
2023-04-08T14:17:04.899Z,4.97
2023-04-08T14:27:07.918Z,6.55
2023-04-08T14:37:20.808Z,4.95
2023-04-08T14:47:27.277Z,4.50
2023-04-08T14:57:29.717Z,5.20
2023-04-08T15:07:32.197Z,5.68
2023-04-08T15:17:45.066Z,5.13
2023-04-08T15:27:47.161Z,3.97
2023-04-08T15:37:49.130Z,4.78
2023-04-08T15:48:04.780Z,6.40
2023-04-08T15:58:16.792Z,5.65
2023-04-08T16:08:20.364Z,5.70
2023-04-08T16:18:22.511Z,5.57
2023-04-08T16:28:28.103Z,6.43
2023-04-08T16:38:33.408Z,7.38
2023-04-08T16:48:45.718Z,7.30
2023-04-08T16:58:47.630Z,6.25
2023-04-08T17:08:50.957Z,8.15
2023-04-08T17:18:53.105Z,6.63
2023-04-08T17:28:56.256Z,7.38
2023-04-08T17:39:00.322Z,6.68
2023-04-08T17:49:14.458Z,7.20
2023-04-08T17:59:16.611Z,4.97
2023-04-08T18:09:22.704Z,5.50
2023-04-08T18:19:37.818Z,4.65
2023-04-08T18:29:39.815Z,5.07
2023-04-08T18:39:41.901Z,6.57
2023-04-08T18:49:46.636Z,7.15
2023-04-08T19:00:10.911Z,8.32
2023-04-08T19:10:13.876Z,8.23
2023-04-08T19:20:25.930Z,9.00
2023-04-08T19:30:27.889Z,11.38
2023-04-08T19:40:29.960Z,11.77
2023-04-08T19:50:37.870Z,11.15
2023-04-08T20:00:40.338Z,10.75
2023-04-08T20:10:42.686Z,9.40
2023-04-08T20:20:45.990Z,15.25
2023-04-08T20:30:48.348Z,18.65
2023-04-08T20:40:50.362Z,12.23
2023-04-08T20:50:52.275Z,13.25
2023-04-08T21:01:00.656Z,9.88
2023-04-08T21:11:08.541Z,8.90
2023-04-08T21:21:14.324Z,8.88
2023-04-08T21:31:18.451Z,7.82
2023-04-08T21:41:30.405Z,8.43
2023-04-08T21:51:36.129Z,8.82
2023-04-08T22:01:43.984Z,10.23
2023-04-08T22:11:46.239Z,11.00
2023-04-08T22:21:51.399Z,10.10
2023-04-08T22:31:53.442Z,8.00
2023-04-08T22:41:56.071Z,9.38
2023-04-08T22:52:15.699Z,9.55
2023-04-08T23:02:17.829Z,10.10
2023-04-08T23:12:19.964Z,9.30
2023-04-08T23:22:34.791Z,8.38
2023-04-08T23:32:36.760Z,8.32
2023-04-08T23:42:38.693Z,11.50
2023-04-08T23:53:06.052Z,9.77
